Aviation Digital Data Service (ADDS)

Output produced by METARs form (2230 UTC 14 December 2018)
found at http://aviationweather.gov/metar/data/
 
ESTA 142220Z AUTO 09011KT 9999 OVC051/// 01/M01 Q1031
TAF ESTA 142001Z 1421/1423 06010KT 9999 BKN040